Weather reports worldwide

Advertisment
Coventry/Coundon, United Kingdom (99070): temperature & dewpoint: 25.10.2020 04:00:00 - 31.10.2020 04:00:00 (GMT)Coventry/Coundon, United Kingdom (99070): temperature -20cm & temperature -100cm: 25.10.2020 04:00:00 - 31.10.2020 04:00:00 (GMT)Coventry/Coundon, United Kingdom (99070): wind speed & gusts: 25.10.2020 04:00:00 - 31.10.2020 04:00:00 (GMT)Coventry/Coundon, United Kingdom (99070): wind direction: 25.10.2020 04:00:00 - 31.10.2020 04:00:00 (GMT)Coventry/Coundon, United Kingdom (99070): sunshine duration: 25.10.2020 04:00:00 - 31.10.2020 04:00:00 (GMT)Coventry/Coundon, United Kingdom (99070): precipitation: 25.10.2020 04:00:00 - 31.10.2020 04:00:00 (GMT)
Date & Time tt [°C] td [°C] tt -20cm [°C] tt -100cm [°C] ff [km/h] ff [kn] fx [km/h] fx [kn] dd sd [min] rr [mm]
31.10.2020 04:00:00 13,2 12,7 - - 16 9 - - S 0 -
31.10.2020 03:00:00 13,4 12,9 - - 16 9 - - S 0 0,0
31.10.2020 02:00:00 13,7 13,2 - - 15 8 - - S 0 0,2
31.10.2020 01:00:00 13,7 13,3 - - 13 7 - - S 0 0,2
31.10.2020 00:00:00 13,6 13,4 - - 11 6 - - S - 0,0
30.10.2020 23:00:00 13,5 13,4 - - 9 5 - - S 0 0,0
30.10.2020 22:00:00 12,4 12,1 - - 4 2 - - SE 0 0,2
30.10.2020 21:00:00 11,9 11,0 - - 5 3 - - E 0 0,0
30.10.2020 20:00:00 12,6 10,9 - - 5 3 - - NE 0 0,0
30.10.2020 19:00:00 12,6 10,5 - - 5 3 - - N 0 0,0
30.10.2020 18:00:00 14,1 12,9 - - 5 3 - - SW 0 0,0
30.10.2020 17:00:00 14,5 13,1 - - 9 5 - - SW 0 0,0
30.10.2020 16:00:00 15,2 13,2 - - 9 5 - - SW 0 0,0
30.10.2020 15:00:00 15,7 13,3 - - 13 7 - - SW 0 0,0
30.10.2020 14:00:00 15,7 13,3 - - 15 8 - - SW 0 0,0
30.10.2020 13:00:00 15,6 13,2 - - 15 8 - - SW 0 0,0
30.10.2020 12:00:00 15,2 13,2 - - 16 9 48 26 SW 0 0,0
30.10.2020 11:00:00 14,7 12,9 - - 16 9 - - SW 0 0,0
30.10.2020 10:00:00 14,8 13,0 - - 18 10 - - SW 0 0,0
30.10.2020 09:00:00 14,3 12,6 11,0 12,4 18 10 - - SW 0 0,0
30.10.2020 08:00:00 14,1 12,5 - - 18 10 - - SW 0 0,0
30.10.2020 07:00:00 13,9 12,5 - - 21 11 - - SW 0 0,0
30.10.2020 06:00:00 13,8 12,3 - - 18 10 - - SW 0 0,0
30.10.2020 05:00:00 13,9 12,3 - - 18 10 48 26 SW 0 0,0
30.10.2020 04:00:00 13,8 12,2 - - 16 9 46 25 SW 0 0,0
30.10.2020 03:00:00 13,7 12,1 - - 15 8 - - SW 0 0,0
30.10.2020 02:00:00 13,7 11,9 - - 21 11 - - SW 0 0,0
30.10.2020 01:00:00 13,9 11,7 - - 21 11 46 25 SW 0 0,0
30.10.2020 00:00:00 13,9 11,6 - - 22 12 46 25 SW - 0,0
29.10.2020 23:00:00 13,8 11,4 - - 21 11 - - SW 0 0,0
29.10.2020 22:00:00 13,6 11,6 - - 16 9 - - SSW 0 0,0
29.10.2020 21:00:00 13,7 11,5 - - 15 8 - - SW 0 0,0
29.10.2020 20:00:00 13,6 11,6 - - 16 9 - - SW 0 0,0
29.10.2020 19:00:00 13,7 11,7 - - 18 10 - - SW 0 0,0
29.10.2020 18:00:00 13,8 11,6 - - 15 8 - - SW 0 0,0
29.10.2020 17:00:00 13,7 11,6 - - 15 8 - - SW 0 0,0
29.10.2020 16:00:00 13,5 11,6 - - 15 8 - - SW 0 0,0
29.10.2020 15:00:00 13,5 11,5 - - 16 9 - - SW 0 0,0
29.10.2020 14:00:00 13,3 11,6 - - 18 10 - - SW 0 0,0
29.10.2020 13:00:00 12,9 11,5 - - 22 12 - - SSW 0 0,0
29.10.2020 12:00:00 12,0 11,2 - - 15 8 - - SW 0 0,0
29.10.2020 11:00:00 10,7 10,0 - - 11 6 - - SSW 0 0,0
29.10.2020 10:00:00 9,7 9,2 - - 13 7 - - S 0 0,4
29.10.2020 09:00:00 8,9 8,5 10,5 12,5 9 5 - - SSW 0 0,0
29.10.2020 08:00:00 7,9 7,0 - - 9 5 - - S 0 0,2
29.10.2020 07:00:00 8,0 5,9 - - 5 3 - - SSW 0 0,0
29.10.2020 06:00:00 7,6 5,4 - - 11 6 - - SSW 0 0,0
29.10.2020 05:00:00 6,7 4,9 - - 11 6 - - SW 0 0,0
29.10.2020 04:00:00 6,4 4,5 - - 8 4 - - SW 0 0,0
29.10.2020 03:00:00 6,3 4,3 - - 8 4 - - SW 0 0,0
29.10.2020 02:00:00 5,9 4,1 - - 9 5 - - SW 0 0,0
29.10.2020 01:00:00 5,9 3,8 - - 9 5 - - SW 0 0,0
29.10.2020 00:00:00 6,2 4,2 - - 11 6 - - SW - 0,0
28.10.2020 23:00:00 6,3 4,6 - - 9 5 - - SW 0 0,0
28.10.2020 22:00:00 6,6 4,4 - - 15 8 - - WSW 0 0,0
28.10.2020 21:00:00 6,9 4,6 - - 15 8 - - WSW 0 0,0
28.10.2020 20:00:00 7,0 4,4 - - 13 7 - - SW 0 0,0
28.10.2020 19:00:00 7,5 4,3 - - 13 7 - - SW 0 0,0
28.10.2020 18:00:00 8,0 5,7 - - 9 5 - - SW 0 0,0
28.10.2020 17:00:00 8,5 5,9 - - 13 7 - - SW 0 0,0
28.10.2020 16:00:00 9,2 6,0 - - 11 6 - - SW 6 0,0
28.10.2020 15:00:00 9,6 5,7 - - 13 7 - - SW 0 0,0
28.10.2020 14:00:00 10,2 5,8 - - 18 10 - - SW 18 0,0
28.10.2020 13:00:00 10,0 6,6 - - 16 9 - - SW 0 0,0
28.10.2020 12:00:00 10,1 6,3 - - 15 8 - - SW 0 0,0
28.10.2020 11:00:00 10,6 7,4 - - 18 10 - - SW 6 0,0
28.10.2020 10:00:00 9,5 6,1 - - 16 9 - - SW 12 0,0
28.10.2020 09:00:00 8,9 6,0 10,7 12,7 15 8 - - SSW 18 0,0
28.10.2020 08:00:00 7,6 5,8 - - 16 9 - - SW 0 0,0
28.10.2020 07:00:00 7,1 5,8 - - 13 7 - - SW 0 0,0
28.10.2020 06:00:00 6,8 5,9 - - 15 8 - - SW 0 0,0
28.10.2020 05:00:00 6,8 5,5 - - 15 8 - - SSW 0 0,0
28.10.2020 04:00:00 6,9 5,4 - - 15 8 - - SSW 0 0,0
28.10.2020 03:00:00 7,1 5,3 - - 15 8 - - SSW 0 0,0
28.10.2020 02:00:00 7,7 5,8 - - 8 4 - - SSW 0 0,0
28.10.2020 01:00:00 7,5 5,7 - - 11 6 - - SSW 0 0,0
28.10.2020 00:00:00 7,2 5,2 - - 8 4 - - SSW - 0,0
27.10.2020 23:00:00 7,3 5,2 - - 13 7 - - SW 0 0,0
27.10.2020 22:00:00 7,2 5,0 - - 9 5 - - SW 0 0,0
27.10.2020 21:00:00 7,3 4,9 - - 8 4 - - SW 0 0,0
27.10.2020 20:00:00 8,5 5,1 - - 11 6 - - SW 0 0,0
27.10.2020 19:00:00 9,0 5,2 - - 13 7 - - WSW 0 0,0
27.10.2020 18:00:00 9,5 5,2 - - 15 8 - - WSW 0 0,0
27.10.2020 17:00:00 10,4 6,5 - - 18 10 - - WSW 6 0,0
27.10.2020 16:00:00 11,3 8,8 - - 15 8 - - W 12 0,4
27.10.2020 15:00:00 12,5 10,9 - - 16 9 - - WSW 6 0,4
27.10.2020 14:00:00 11,8 11,7 - - 11 6 - - S 0 1,4
27.10.2020 13:00:00 11,0 10,8 - - 15 8 - - S 0 0,8
27.10.2020 12:00:00 10,1 9,7 - - 15 8 - - S 0 0,8
27.10.2020 11:00:00 9,2 8,7 - - 11 6 - - SSE 0 0,4
27.10.2020 10:00:00 8,4 8,0 - - 13 7 - - S 0 0,0
27.10.2020 09:00:00 7,8 7,1 11,0 12,7 15 8 - - S 0 0,0
27.10.2020 08:00:00 7,7 6,8 - - 11 6 - - S 0 0,2
27.10.2020 07:00:00 7,6 7,0 - - 13 7 - - S 0 0,0
27.10.2020 06:00:00 6,5 5,9 - - 8 4 - - S 0 0,0
27.10.2020 05:00:00 6,7 6,1 - - 8 4 - - SSW 0 0,0
27.10.2020 04:00:00 6,1 5,9 - - 8 4 - - SSW 0 0,0
27.10.2020 03:00:00 5,1 4,5 - - 4 2 - - S 0 0,0
27.10.2020 02:00:00 5,5 4,8 - - 5 3 - - S 0 0,0
27.10.2020 01:00:00 6,4 5,4 - - 8 4 - - SW 0 0,0
27.10.2020 00:00:00 6,9 5,5 - - 9 5 - - SW - 0,0
26.10.2020 23:00:00 7,1 5,6 - - 8 4 - - SW 0 0,0
26.10.2020 22:00:00 7,5 6,0 - - 9 5 - - WSW 0 0,0
26.10.2020 21:00:00 7,6 5,9 - - 9 5 - - WSW 0 0,0
26.10.2020 20:00:00 7,9 5,7 - - 9 5 - - WSW 0 0,0
26.10.2020 19:00:00 8,4 5,8 - - 9 5 - - SW 0 0,0
26.10.2020 18:00:00 9,0 6,0 - - 9 5 - - WSW 0 0,0
26.10.2020 17:00:00 10,1 5,9 - - 13 7 - - W 12 0,0
26.10.2020 16:00:00 11,2 5,5 - - 18 10 - - WSW 48 0,0
26.10.2020 15:00:00 12,2 6,4 - - 15 8 - - W 24 0,0
26.10.2020 14:00:00 11,8 8,2 - - 9 5 - - WNW 24 0,2
26.10.2020 13:00:00 12,9 7,6 - - 16 9 - - WSW 36 0,0
26.10.2020 12:00:00 11,2 8,7 - - 15 8 - - WSW 18 0,0
26.10.2020 11:00:00 10,1 9,4 - - 11 6 - - WSW 12 0,2
26.10.2020 10:00:00 9,0 8,3 - - 15 8 - - SW 6 0,0
26.10.2020 09:00:00 7,4 7,3 11,2 12,9 9 5 - - SSW 0 0,2
26.10.2020 08:00:00 6,1 6,0 - - 5 3 - - SSW 0 0,2
26.10.2020 07:00:00 4,8 4,7 - - 8 4 - - S 0 0,0
26.10.2020 06:00:00 4,5 4,3 - - 5 3 - - S 0 0,2
26.10.2020 05:00:00 4,4 4,2 - - 5 3 - - SSW 0 0,0
26.10.2020 04:00:00 4,5 4,3 - - 5 3 - - S 0 0,0
26.10.2020 03:00:00 4,7 4,5 - - 5 3 - - SSW 0 0,0
26.10.2020 02:00:00 4,8 4,6 - - 5 3 - - S 0 0,0
26.10.2020 01:00:00 5,1 4,7 - - 8 4 - - S 0 0,0
26.10.2020 00:00:00 5,5 5,1 - - 5 3 - - SSW - 0,0
25.10.2020 23:00:00 5,8 5,2 - - 5 3 - - SSW 0 0,0
25.10.2020 22:00:00 6,5 5,9 - - 5 3 - - SSW 0 0,0
25.10.2020 21:00:00 6,7 5,9 - - 5 3 - - SSW 0 0,0
25.10.2020 20:00:00 7,5 6,8 - - 9 5 - - S 0 0,2
25.10.2020 19:00:00 7,5 6,4 - - 8 4 - - SSW 0 0,0
25.10.2020 18:00:00 7,3 5,9 - - 5 3 - - SSW 0 0,0
25.10.2020 17:00:00 8,1 6,2 - - 8 4 - - SSW 0 0,0
25.10.2020 16:00:00 9,8 6,7 - - 8 4 - - SSW 12 0,4
25.10.2020 15:00:00 9,7 6,4 - - 15 8 - - W 0 0,2
25.10.2020 14:00:00 12,8 4,8 - - 21 11 - - SW 48 0,0
25.10.2020 13:00:00 12,5 6,5 - - 15 8 - - SW 24 0,0
25.10.2020 12:00:00 11,6 5,8 - - 16 9 - - SW 24 0,0
25.10.2020 11:00:00 11,8 5,9 - - 15 8 - - SW 54 0,0
25.10.2020 10:00:00 11,3 7,4 - - 13 7 - - SSW 42 0,0
25.10.2020 09:00:00 8,9 6,5 11,7 13,0 11 6 - - SSW 36 0,2
25.10.2020 08:00:00 7,4 6,5 - - 9 5 - - SSW 6 0,0
25.10.2020 07:00:00 6,3 5,7 - - 9 5 - - S 0 0,0
25.10.2020 06:00:00 6,1 5,6 - - 8 4 - - S 0 0,0
25.10.2020 05:00:00 6,6 6,1 - - 5 3 - - S 0 0,0
25.10.2020 04:00:00 6,7 6,2 - - 8 4 - - S 0 0,0

tt = temperature
td = dewpoint
tt -20cm = temperature -20cm
tt -100cm = temperature -100cm
ff = wind speed
fx = gusts
dd = wind direction
sd = sunshine duration
rr = precipitation

Next stations